PDB weather

Pedro Bay Airport
Pedro Bay, Alaska, United States

Public forecast

Using degrees Fahrenheit for public forecast. Weather courtesy of forecast.io.

Closest aviation weather report (METAR) to Pedro Bay Airport

Closest report is Iliamna Airport, 23.9 nm (44.2 km) W. Retrieved 2020/04/04 08:28 UTC (32 minutes ago):

PAIL 040828Z AUTO 20009KT 4SM -SN BR OVC005 00/00 A3018 RMK P0002 T00000000 TSNO VIA AUTODIAL

Closest aviation forecast (TAF) to Pedro Bay Airport

Forecast is more than 6 hours old.

Closest forecast is Iliamna Airport, 23.9 nm (44.2 km) W. Retrieved 2020-04-04 00:40 UTC (8 hours ago):

TAF PAIL 032337Z 0400/0424 23010KT P6SM SCT008 FM040300 18012KT P6SM SCT008 FM040700 15015G20KT 4SM -RASN OVC015 FM041200 21015G20KT 4SM -RASN OVC015 FM041800 26015G20KT P6SM OVC050